Time;durP1;ratioP1;P1;durP2;ratioP2;P2;SDS_P1;SDS_P2;PMS_P1;PMS_P2;Temp;Humidity;BMP_temperature;BMP_pressure;BME280_temperature;BME280_humidity;BME280_pressure;Samples;Min_cycle;Max_cycle;Signal;HPM_P1;HPM_P2
2021/08/23 00:02:02;;;;;;;4.55;2.83;;;16.20;84.30;;;15.08;85.97;96406.94;4949233;28;20437;-66
2021/08/23 00:04:28;;;;;;;5.38;2.67;;;16.10;84.50;;;15.05;87.40;96402.88;4950763;28;20060;-66
2021/08/23 00:06:53;;;;;;;4.95;2.58;;;16.10;84.40;;;15.01;85.91;96393.72;4950009;28;20502;-65
2021/08/23 00:09:20;;;;;;;4.90;2.70;;;16.10;83.70;;;14.97;86.78;96398.63;4950646;28;20039;-66
2021/08/23 00:11:47;;;;;;;5.40;2.63;;;16.10;83.70;;;14.91;86.87;96390.69;4965641;28;20043;-66
2021/08/23 00:14:12;;;;;;;4.45;2.42;;;16.00;83.50;;;14.88;86.93;96402.50;4949238;28;20062;-66
2021/08/23 00:16:38;;;;;;;6.82;2.63;;;15.90;83.60;;;14.85;85.67;96399.47;4949887;28;20031;-66
2021/08/23 00:19:04;;;;;;;3.78;2.95;;;15.90;83.60;;;14.82;86.43;96400.69;4950870;28;20062;-65
2021/08/23 00:21:30;;;;;;;5.13;2.78;;;15.80;83.40;;;14.78;85.83;96398.69;4933020;29;20400;-66
2021/08/23 00:24:20;;;;;;;3.90;2.65;;;15.80;83.70;;;14.74;86.38;96400.13;4932910;28;20049;-66
2021/08/23 00:26:46;;;;;;;;;;;15.80;83.90;;;14.68;86.76;96399.91;4937781;29;20043;-66
2021/08/23 00:29:12;;;;;;;4.80;2.80;;;15.80;83.90;;;14.64;85.27;96393.41;4964652;28;19922;-66
2021/08/23 00:31:38;;;;;;;4.68;2.67;;;15.70;84.10;;;14.64;86.12;96396.06;4950692;28;20091;-66
2021/08/23 00:34:03;;;;;;;5.10;2.55;;;15.70;84.20;;;14.63;86.22;96402.38;4945569;28;20044;-66
2021/08/23 00:36:29;;;;;;;5.18;3.00;;;15.70;84.30;;;14.60;86.95;96394.84;4930945;29;20047;-66
2021/08/23 00:38:55;;;;;;;4.13;2.80;;;15.60;84.30;;;14.61;86.32;96390.34;4949447;28;20088;-66
2021/08/23 00:41:20;;;;;;;5.38;2.90;;;15.70;84.30;;;14.60;86.53;96389.53;4948353;28;20043;-66
2021/08/23 00:43:46;;;;;;;7.97;3.03;;;15.70;84.30;;;14.59;86.19;96390.56;4950634;28;20463;-66
2021/08/23 00:46:12;;;;;;;6.63;2.88;;;15.70;84.40;;;14.59;87.24;96390.56;4948179;28;20499;-65
2021/08/23 00:48:38;;;;;;;4.07;2.75;;;15.70;84.30;;;14.57;86.61;96387.31;4949177;28;20079;-66
2021/08/23 00:51:03;;;;;;;3.80;2.53;;;15.60;84.40;;;14.56;86.80;96387.53;4948274;28;20562;-66
2021/08/23 00:53:29;;;;;;;6.63;2.78;;;15.70;84.30;;;14.54;86.68;96390.38;4950045;28;20043;-66
2021/08/23 00:55:55;;;;;;;5.15;3.08;;;15.60;84.50;;;14.54;87.14;96386.91;4949900;28;20082;-66
2021/08/23 00:58:21;;;;;;;4.72;2.97;;;15.70;84.10;;;14.52;86.42;96384.47;4932826;29;20042;-66
2021/08/23 01:01:03;;;;;;;5.15;3.13;;;15.70;84.20;;;14.51;86.64;96382.84;4948729;28;20035;-66
2021/08/23 01:04:03;;;;;;;5.32;3.10;;;15.60;84.20;;;14.46;87.52;96387.94;4964829;28;20063;-66
2021/08/23 01:06:30;;;;;;;4.43;2.47;;;15.50;84.40;;;14.43;87.04;96383.06;4928837;29;20039;-66
2021/08/23 01:09:00;;;;;;;7.18;3.30;;;15.50;84.30;;;14.40;86.98;96388.72;4948859;28;20086;-66
2021/08/23 01:11:25;;;;;;;5.22;2.90;;;15.50;84.10;;;14.37;87.09;96378.56;4932718;29;20106;-66
2021/08/23 01:13:52;;;;;;;6.57;3.45;;;15.40;84.20;;;14.39;85.89;96395.03;4932810;28;20138;-66
2021/08/23 01:16:18;;;;;;;5.85;3.05;;;15.50;84.20;;;14.39;86.57;96393.22;4948372;28;20031;-66
2021/08/23 01:18:44;;;;;;;6.63;3.40;;;15.60;83.80;;;14.39;86.90;96389.75;4946131;28;20077;-66
2021/08/23 01:21:11;;;;;;;6.97;3.30;;;15.50;84.10;;;14.37;87.38;96386.50;4927791;29;20032;-66
2021/08/23 01:23:41;;;;;;;7.43;3.42;;;15.50;84.20;;;14.38;87.13;96390.78;4943531;29;20054;-66
2021/08/23 01:26:06;;;;;;;4.88;3.13;;;15.50;83.80;;;14.38;87.10;96393.41;4948118;28;20035;-66
2021/08/23 01:29:02;;;;;;;4.72;2.97;;;15.60;83.80;;;14.36;86.40;96400.75;4933051;29;20487;-66
2021/08/23 01:32:02;;;;;;;5.65;3.25;;;15.50;83.90;;;14.29;86.92;96392.00;4949715;28;20058;-66
2021/08/23 01:34:28;;;;;;;7.13;3.40;;;15.40;84.20;;;14.22;86.94;96396.47;4948803;28;20535;-66
2021/08/23 01:36:54;;;;;;;4.63;3.10;;;15.30;84.50;;;14.17;86.86;96399.72;4913234;29;20040;-66
2021/08/23 01:39:20;;;;;;;4.80;3.15;;;15.20;84.60;;;14.11;86.71;96395.25;4964533;28;20503;-66
2021/08/23 01:41:46;;;;;;;6.47;2.92;;;15.20;84.80;;;14.07;87.25;96386.13;4959362;28;20108;-66
2021/08/23 01:44:11;;;;;;;5.47;3.28;;;15.10;85.00;;;14.04;86.93;96387.34;4948964;28;20047;-66
2021/08/23 01:46:37;;;;;;;7.40;4.07;;;15.20;85.00;;;14.07;87.09;96386.94;4915717;29;20038;-65
2021/08/23 01:49:06;;;;;;;4.97;3.25;;;15.20;84.90;;;14.06;87.77;96395.88;4935999;28;20055;-66
2021/08/23 01:51:32;;;;;;;7.00;3.15;;;15.30;84.60;;;14.06;86.62;96392.44;4929281;29;20044;-66
2021/08/23 01:53:58;;;;;;;6.63;3.67;;;15.30;84.60;;;14.06;88.10;96392.44;4948987;28;20054;-66
2021/08/23 01:56:24;;;;;;;5.32;3.53;;;15.30;84.60;;;14.07;87.41;96391.41;4937047;28;20118;-66
2021/08/23 01:58:50;;;;;;;5.47;3.47;;;15.40;84.30;;;14.10;88.29;96397.09;4949546;28;20452;-66
2021/08/23 02:01:16;;;;;;;6.07;3.78;;;15.40;84.20;;;14.12;87.40;96390.78;4944988;29;20113;-66
2021/08/23 02:03:42;;;;;;;7.43;3.60;;;15.40;84.10;;;14.12;87.55;96404.81;4936754;28;20035;-66
2021/08/23 02:06:10;;;;;;;6.07;3.50;;;15.40;84.10;;;14.13;87.87;96406.47;4953613;28;20043;-66
2021/08/23 02:08:35;;;;;;;8.18;3.65;;;15.50;84.10;;;14.16;87.90;96407.88;4953122;28;20023;-66
2021/08/23 02:11:02;;;;;;;7.60;3.38;;;15.50;84.00;;;14.16;87.57;96410.53;4968419;28;20066;-66
2021/08/23 02:13:27;;;;;;;9.07;3.38;;;15.40;84.10;;;14.14;88.37;96418.66;4952701;28;20047;-66
2021/08/23 02:15:53;;;;;;;5.43;3.67;;;15.40;84.30;;;14.14;88.59;96412.56;4967848;28;20043;-66
2021/08/23 02:18:19;;;;;;;6.85;3.47;;;15.40;84.40;;;14.13;87.88;96403.81;4968016;28;20050;-66
2021/08/23 02:20:44;;;;;;;8.35;3.80;;;15.40;84.60;;;14.12;87.36;96407.47;4953538;28;20043;-66
2021/08/23 02:23:10;;;;;;;4.95;3.50;;;15.40;84.40;;;14.12;88.93;96411.94;4952689;28;20035;-65
2021/08/23 02:25:36;;;;;;;5.55;3.55;;;15.30;84.80;;;14.09;88.46;96416.63;4933469;28;20032;-66
2021/08/23 02:28:02;;;;;;;5.97;3.30;;;15.30;84.90;;;14.11;88.64;96411.13;4935930;28;20063;-65
2021/08/23 02:30:28;;;;;;;6.05;4.00;;;15.30;84.90;;;14.08;87.75;96406.25;4952317;28;20059;-66
2021/08/23 02:32:53;;;;;;;5.50;3.50;;;15.30;85.00;;;14.06;88.33;96409.09;4928461;29;20046;-66
2021/08/23 02:35:19;;;;;;;13.65;4.13;;;15.30;85.10;;;14.06;87.69;96405.66;4929374;29;20036;-66
2021/08/23 02:37:45;;;;;;;5.22;3.50;;;15.30;85.10;;;14.08;88.56;96404.44;4967908;28;20051;-66
2021/08/23 02:40:11;;;;;;;5.63;3.17;;;15.40;84.90;;;14.08;88.24;96407.06;4948725;28;20047;-66
2021/08/23 02:42:37;;;;;;;5.55;3.10;;;15.30;84.90;;;14.08;88.67;96401.78;4925796;29;20044;-65
2021/08/23 02:45:03;;;;;;;6.50;3.40;;;15.30;84.90;;;14.06;88.71;96408.28;4953654;28;20054;-65
2021/08/23 02:47:29;;;;;;;5.43;3.53;;;15.30;84.60;;;14.04;88.06;96405.84;4951803;28;20471;-66
2021/08/23 02:49:55;;;;;;;6.13;3.80;;;15.30;84.70;;;14.01;88.09;96400.94;4955355;28;20067;-66
2021/08/23 02:52:20;;;;;;;6.50;3.40;;;15.20;84.80;;;14.02;89.03;96397.28;4940144;28;20101;-66
2021/08/23 02:54:46;;;;;;;7.45;4.07;;;15.30;84.80;;;14.05;88.76;96404.03;4983523;28;20031;-65
2021/08/23 02:57:12;;;;;;;5.85;3.60;;;15.40;84.70;;;14.05;88.46;96399.53;4953122;28;20542;-65
2021/08/23 02:59:38;;;;;;;12.13;8.60;;;15.30;84.60;;;14.08;89.27;96406.25;4951740;28;20055;-66
2021/08/23 03:02:03;;;;;;;5.80;4.63;;;15.40;84.70;;;14.09;87.56;96406.06;4950992;28;20153;-66
2021/08/23 03:04:29;;;;;;;9.90;5.97;;;15.40;84.50;;;14.10;88.96;96406.88;4951719;28;20093;-66
2021/08/23 03:06:55;;;;;;;4.82;3.83;;;15.50;84.50;;;14.14;87.81;96404.63;4934949;28;20082;-66
2021/08/23 03:09:21;;;;;;;7.00;4.60;;;15.40;84.50;;;14.15;88.71;96406.25;4951800;28;20130;-65
2021/08/23 03:11:46;;;;;;;7.28;3.53;;;15.40;84.70;;;14.17;88.12;96398.91;4950832;28;20090;-66
2021/08/23 03:14:12;;;;;;;4.72;3.10;;;15.50;84.80;;;14.19;89.23;96408.28;4950906;28;20047;-66
2021/08/23 03:16:38;;;;;;;5.53;3.42;;;15.50;84.90;;;14.21;88.76;96394.84;4952613;28;20046;-66
2021/08/23 03:19:03;;;;;;;5.43;3.25;;;15.50;84.40;;;14.21;88.87;96400.13;4951050;28;20051;-66
2021/08/23 03:21:29;;;;;;;4.72;3.05;;;15.50;84.60;;;14.23;88.29;96398.09;4935070;29;20115;-66
2021/08/23 03:23:55;;;;;;;6.28;3.42;;;15.50;84.40;;;14.25;89.52;96396.06;4952302;28;20426;-66
2021/08/23 03:26:21;;;;;;;5.35;3.38;;;15.60;84.60;;;14.25;88.85;96390.78;4967286;28;20055;-66
2021/08/23 03:28:47;;;;;;;5.65;2.90;;;15.60;84.80;;;14.28;88.89;96398.31;4947997;28;20661;-66
2021/08/23 03:31:12;;;;;;;5.22;2.95;;;15.60;84.40;;;14.27;89.04;96399.34;4933249;28;20077;-66
2021/08/23 03:33:39;;;;;;;4.63;3.00;;;15.60;84.60;;;14.29;88.31;96402.59;4946173;29;20075;-66
2021/08/23 03:36:05;;;;;;;4.32;3.08;;;15.70;84.70;;;14.32;88.99;96399.53;4950348;28;20094;-66
2021/08/23 03:38:31;;;;;;;6.55;3.30;;;15.60;84.40;;;14.33;88.80;96398.50;4935065;29;20083;-66
2021/08/23 03:40:57;;;;;;;7.32;2.90;;;15.70;84.10;;;14.34;88.29;96403.59;4934599;28;20055;-66
2021/08/23 03:43:22;;;;;;;4.70;3.08;;;15.70;84.30;;;14.36;88.42;96403.41;4951100;28;20042;-66
2021/08/23 03:45:48;;;;;;;8.05;3.47;;;15.70;84.40;;;14.35;88.06;96396.47;4950344;28;20031;-66
2021/08/23 03:48:14;;;;;;;4.93;3.08;;;15.60;84.00;;;14.33;89.33;96395.88;4918920;29;20046;-66
2021/08/23 03:50:40;;;;;;;5.03;2.95;;;15.60;84.30;;;14.32;88.63;96386.31;4955041;28;20071;-66
2021/08/23 03:53:05;;;;;;;7.53;4.50;;;15.60;84.30;;;14.34;88.12;96400.97;4934700;28;20043;-66
2021/08/23 03:55:31;;;;;;;9.88;8.02;;;15.60;84.40;;;14.36;88.43;96387.53;4950532;28;20505;-66
2021/08/23 03:57:57;;;;;;;10.40;6.70;;;15.70;84.40;;;14.37;89.09;96383.84;4950029;28;20519;-66
2021/08/23 04:00:23;;;;;;;9.10;6.45;;;15.70;84.20;;;14.38;88.94;96382.81;4947038;28;20090;-66
2021/08/23 04:02:48;;;;;;;6.93;5.85;;;15.70;84.30;;;14.38;88.73;96385.47;4927628;29;20226;-66
2021/08/23 04:05:14;;;;;;;6.45;5.32;;;15.70;84.30;;;14.38;88.57;96381.00;4951834;28;20074;-66
2021/08/23 04:07:40;;;;;;;6.15;3.40;;;15.80;84.30;;;14.39;89.04;96387.09;4944000;28;20139;-66
2021/08/23 04:10:07;;;;;;;7.13;4.25;;;15.70;84.10;;;14.39;90.81;96387.09;4931853;28;20500;-66
2021/08/23 04:12:32;;;;;;;4.45;3.35;;;15.70;84.30;;;14.40;89.45;96388.72;4950106;28;20031;-66
2021/08/23 04:15:00;;;;;;;9.40;6.90;;;15.70;84.50;;;14.43;90.61;96398.09;4933957;28;20039;-66
2021/08/23 04:17:25;;;;;;;11.73;8.90;;;15.80;84.30;;;14.42;90.42;96386.69;4951726;28;20043;-66
2021/08/23 04:19:51;;;;;;;8.93;6.88;;;15.80;84.20;;;14.43;89.77;96393.63;4949080;28;20695;-66
2021/08/23 04:22:17;;;;;;;6.10;4.05;;;15.80;84.30;;;14.43;89.42;96393.63;4951297;28;20178;-66
2021/08/23 04:24:43;;;;;;;5.90;3.67;;;15.80;84.10;;;14.40;89.72;96388.72;4943055;28;20171;-66
2021/08/23 04:27:08;;;;;;;4.07;3.22;;;15.60;84.20;;;14.37;88.50;96399.72;4932217;29;20050;-65
2021/08/23 04:29:34;;;;;;;4.05;3.35;;;15.70;84.70;;;14.39;88.62;96387.09;4949526;28;20039;-65
2021/08/23 04:32:00;;;;;;;5.97;3.45;;;15.70;84.60;;;14.39;89.53;96397.69;4930203;28;20091;-67
2021/08/23 04:34:26;;;;;;;6.72;3.88;;;15.70;84.70;;;14.35;88.17;96399.94;4946611;28;20044;-65
2021/08/23 04:36:51;;;;;;;7.25;3.00;;;15.60;84.40;;;14.37;88.70;96402.38;4946066;28;20047;-66
2021/08/23 04:39:17;;;;;;;10.20;7.82;;;15.70;84.30;;;14.38;89.83;96404.00;4953450;28;20063;-66
2021/08/23 04:41:43;;;;;;;11.75;8.05;;;15.70;84.50;;;14.38;89.55;96396.06;4955937;28;20040;-64
2021/08/23 04:44:09;;;;;;;7.32;4.55;;;15.70;84.70;;;14.40;89.59;96394.03;4950072;28;20457;-64
2021/08/23 04:46:35;;;;;;;6.45;3.25;;;15.70;84.60;;;14.39;89.05;96402.97;4960335;28;20418;-65
2021/08/23 04:49:00;;;;;;;8.45;3.47;;;15.60;84.40;;;14.38;89.41;96391.59;4932912;28;20035;-63
2021/08/23 04:51:26;;;;;;;6.82;3.58;;;15.60;84.50;;;14.38;88.84;96401.34;4965010;28;20508;-65
2021/08/23 04:53:52;;;;;;;6.38;3.00;;;15.70;84.50;;;14.40;89.12;96394.03;4946598;28;20519;-65
2021/08/23 04:56:18;;;;;;;4.55;3.22;;;15.70;84.20;;;14.41;89.29;96400.94;4949314;28;20054;-64
2021/08/23 04:58:44;;;;;;;4.78;2.90;;;15.70;84.20;;;14.43;88.40;96408.69;4933438;29;20035;-63
2021/08/23 05:01:10;;;;;;;5.97;3.40;;;15.70;84.20;;;14.43;89.03;96393.63;4964068;28;20530;-66
2021/08/23 05:03:36;;;;;;;3.70;2.65;;;15.70;84.60;;;14.46;89.70;96403.81;4961593;28;20035;-65
2021/08/23 05:06:02;;;;;;;7.22;4.53;;;15.80;84.30;;;14.47;88.55;96400.13;4945704;28;20597;-65
2021/08/23 05:08:27;;;;;;;17.20;14.15;;;15.90;84.50;;;14.48;89.55;96396.47;4965034;28;20415;-65
2021/08/23 05:10:53;;;;;;;8.55;4.68;;;15.90;84.40;;;14.50;87.92;96405.06;4964447;28;20082;-65
2021/08/23 05:13:19;;;;;;;5.95;3.35;;;15.80;83.90;;;14.52;88.93;96405.66;4945224;28;20044;-65
2021/08/23 05:15:45;;;;;;;5.90;3.97;;;15.80;84.10;;;14.51;88.17;96401.38;4950659;28;20042;-65
2021/08/23 05:18:10;;;;;;;5.90;3.17;;;15.80;84.50;;;14.52;89.78;96407.50;4949842;28;20338;-65
2021/08/23 05:20:36;;;;;;;5.53;3.10;;;15.80;84.50;;;14.51;88.84;96404.03;4948110;28;20038;-65
2021/08/23 05:23:02;;;;;;;4.70;3.20;;;15.80;84.60;;;14.52;88.78;96405.66;4932251;28;20093;-65
2021/08/23 05:25:28;;;;;;;4.50;3.00;;;15.90;84.20;;;14.51;88.26;96401.38;4961156;28;20042;-65
2021/08/23 05:27:54;;;;;;;3.58;2.85;;;15.80;84.00;;;14.53;89.25;96399.34;4953787;28;20079;-65
2021/08/23 05:30:19;;;;;;;4.43;3.10;;;15.90;84.30;;;14.53;88.38;96407.28;4942497;28;20123;-65
2021/08/23 05:32:45;;;;;;;4.60;3.30;;;15.80;84.10;;;14.53;88.26;96396.69;4946951;28;20050;-65
2021/08/23 05:35:11;;;;;;;5.68;2.95;;;15.90;83.90;;;14.55;88.42;96402.59;4947785;28;20062;-65
2021/08/23 05:37:37;;;;;;;6.90;2.97;;;16.00;83.90;;;14.58;89.12;96406.66;4926505;28;20047;-65
2021/08/23 05:40:04;;;;;;;4.30;3.10;;;16.00;84.10;;;14.57;88.32;96400.56;4946593;28;20574;-65
2021/08/23 05:42:30;;;;;;;5.65;3.03;;;16.00;83.90;;;14.61;89.86;96401.75;4931614;28;20475;-65
2021/08/23 05:44:55;;;;;;;6.40;3.20;;;16.10;84.00;;;14.63;89.54;96414.78;4927658;28;20040;-65
2021/08/23 05:47:22;;;;;;;6.43;3.00;;;16.10;84.00;;;14.66;89.19;96415.19;4943639;28;20152;-65
2021/08/23 05:49:48;;;;;;;4.72;3.15;;;16.10;84.20;;;14.65;88.20;96413.56;4942215;28;20040;-65
2021/08/23 05:52:13;;;;;;;5.82;3.15;;;16.10;83.90;;;14.63;88.43;96415.59;4929198;28;20078;-65
2021/08/23 05:54:40;;;;;;;4.88;3.40;;;16.10;84.10;;;14.66;88.25;96417.03;4913468;29;20036;-65
2021/08/23 05:57:06;;;;;;;6.55;3.63;;;16.10;83.90;;;14.68;88.42;96413.16;4926003;28;20048;-65
2021/08/23 05:59:32;;;;;;;6.65;3.22;;;16.10;83.80;;;14.74;89.85;96419.47;4941544;28;20047;-65
2021/08/23 06:01:58;;;;;;;6.95;3.35;;;16.30;83.60;;;14.78;88.93;96411.91;4928686;28;20063;-66
2021/08/23 06:04:24;;;;;;;7.97;3.30;;;16.40;83.60;;;14.77;88.27;96405.81;4941763;28;20060;-66
2021/08/23 06:06:50;;;;;;;5.35;3.00;;;16.20;82.70;;;14.79;88.86;96405.59;4909662;29;20412;-67
2021/08/23 06:09:16;;;;;;;6.07;3.95;;;16.30;83.40;;;14.82;89.33;96407.81;4958593;28;20039;-68
2021/08/23 06:11:42;;;;;;;5.60;3.70;;;16.30;83.00;;;14.87;88.54;96408.00;4943994;28;20048;-67
2021/08/23 06:14:08;;;;;;;8.90;6.50;;;16.40;83.10;;;14.93;87.97;96415.13;4944559;28;20063;-65
2021/08/23 06:16:33;;;;;;;7.65;3.92;;;16.50;83.00;;;15.00;88.45;96408.00;4944682;28;20064;-66
2021/08/23 06:18:59;;;;;;;6.72;3.10;;;16.60;82.50;;;15.04;89.32;96414.50;4926691;28;20068;-66
2021/08/23 06:21:25;;;;;;;7.47;2.80;;;16.60;82.00;;;15.07;87.54;96403.47;4938445;28;20095;-66
2021/08/23 06:23:51;;;;;;;4.57;2.90;;;16.60;82.00;;;15.14;88.71;96401.59;4946908;28;20079;-67
2021/08/23 06:26:16;;;;;;;5.03;3.00;;;16.80;82.40;;;15.26;87.54;96405.22;4947959;28;20031;-67
2021/08/23 06:28:42;;;;;;;7.70;4.38;;;16.90;81.90;;;15.34;87.97;96406.81;4948268;28;20040;-64
2021/08/23 06:31:08;;;;;;;6.22;4.57;;;17.00;81.80;;;15.40;87.88;96411.31;4949052;28;20031;-67
2021/08/23 06:33:34;;;;;;;6.22;4.03;;;17.10;81.90;;;15.51;88.18;96409.81;4948352;28;20032;-66
2021/08/23 06:36:00;;;;;;;5.82;3.08;;;17.30;81.60;;;15.64;87.66;96423.03;4947737;28;20079;-63
2021/08/23 06:38:26;;;;;;;4.18;2.78;;;17.50;80.70;;;15.75;87.42;96413.56;4928581;29;20032;-66
2021/08/23 06:40:52;;;;;;;3.70;2.60;;;17.60;81.10;;;15.87;88.01;96420.66;4947607;28;20083;-64
2021/08/23 06:43:17;;;;;;;5.60;2.72;;;17.70;80.20;;;15.95;86.68;96413.44;4952902;28;20098;-64
2021/08/23 06:45:43;;;;;;;6.78;2.90;;;17.60;79.00;;;15.97;86.28;96420.16;4951531;28;20043;-66
2021/08/23 06:48:09;;;;;;;6.07;2.78;;;17.60;79.80;;;15.98;85.51;96416.47;4966887;28;20062;-68
2021/08/23 06:50:35;;;;;;;3.30;2.65;;;17.50;79.50;;;15.98;85.58;96423.63;4949008;28;20056;-67
2021/08/23 06:53:02;;;;;;;5.15;3.65;;;17.40;79.70;;;15.96;85.20;96421.19;4949172;28;20028;-67
2021/08/23 06:55:28;;;;;;;5.15;3.70;;;17.50;80.10;;;15.92;85.33;96418.16;4949579;28;20424;-66
2021/08/23 06:57:54;;;;;;;7.53;4.20;;;17.40;80.00;;;15.95;86.06;96424.06;4934761;28;20047;-65
2021/08/23 07:00:20;;;;;;;6.75;4.40;;;17.40;80.20;;;15.93;85.74;96422.44;4935361;29;20035;-65
2021/08/23 07:02:45;;;;;;;5.57;4.20;;;17.40;80.30;;;15.95;85.46;96416.09;4951457;28;20071;-65
2021/08/23 07:05:11;;;;;;;10.48;8.20;;;17.50;80.40;;;16.03;85.68;96421.13;4951356;28;20081;-67
2021/08/23 07:07:37;;;;;;;9.68;5.03;;;17.60;80.70;;;16.08;86.35;96419.50;4935018;29;20456;-64
2021/08/23 07:10:03;;;;;;;4.93;3.35;;;17.80;80.30;;;16.16;85.95;96421.06;4951905;28;20065;-66
2021/08/23 07:12:28;;;;;;;5.75;2.83;;;17.90;79.60;;;16.23;85.79;96414.66;4950881;28;20511;-64
2021/08/23 07:14:54;;;;;;;4.47;3.00;;;18.10;78.70;;;16.31;85.69;96416.25;4950594;28;20027;-67
2021/08/23 07:17:20;;;;;;;5.13;2.88;;;18.10;79.20;;;16.40;85.20;96417.59;4951958;28;20039;-66
2021/08/23 07:19:46;;;;;;;4.03;2.75;;;18.30;78.20;;;16.52;85.38;96415.03;4930804;28;20102;-67
2021/08/23 07:22:18;;;;;;;5.55;3.30;;;18.50;78.40;;;16.64;85.10;96409.81;4960801;28;20047;-65
2021/08/23 07:24:43;;;;;;;5.53;2.90;;;18.70;77.60;;;16.82;85.40;96404.56;4935890;29;20049;-67
2021/08/23 07:27:09;;;;;;;4.60;3.17;;;19.10;76.70;;;17.00;85.03;96403.75;4947447;28;20059;-66
2021/08/23 07:29:35;;;;;;;6.85;3.03;;;19.10;75.80;;;17.13;84.64;96395.63;4929593;29;20059;-67
2021/08/23 07:32:01;;;;;;;5.38;2.97;;;19.40;75.20;;;17.32;83.43;96399.88;4945092;28;20044;-66
2021/08/23 07:34:26;;;;;;;4.68;2.45;;;19.70;73.90;;;17.57;82.99;96407.75;4945525;29;20527;-66
2021/08/23 07:36:52;;;;;;;4.90;2.63;;;20.10;71.30;;;17.78;82.31;96403.81;4950928;28;20057;-67
2021/08/23 07:39:18;;;;;;;5.85;2.70;;;20.10;71.50;;;17.91;81.71;96403.63;4950958;28;20079;-67
2021/08/23 07:41:44;;;;;;;5.07;2.58;;;20.00;71.70;;;17.95;79.94;96398.66;4950662;28;20497;-66
2021/08/23 07:44:10;;;;;;;4.72;2.65;;;19.80;71.10;;;17.96;79.88;96405.59;4933992;28;20058;-68
2021/08/23 07:46:36;;;;;;;3.40;2.22;;;19.70;71.20;;;17.99;79.28;96408.63;4950966;28;20625;-68
2021/08/23 07:49:02;;;;;;;3.17;2.42;;;19.70;71.00;;;18.02;78.79;96404.69;4947138;28;20035;-67
2021/08/23 07:51:28;;;;;;;5.65;2.55;;;19.90;71.40;;;18.13;78.55;96400.44;4946661;28;20690;-67
2021/08/23 07:53:53;;;;;;;4.40;2.50;;;20.10;71.10;;;18.21;79.23;96408.88;4941030;28;20367;-67
2021/08/23 07:56:19;;;;;;;3.97;2.00;;;20.20;70.70;;;18.31;78.54;96409.13;4954445;28;20046;-68
2021/08/23 07:58:45;;;;;;;3.17;2.05;;;20.30;68.90;;;18.36;78.07;96411.13;4952760;28;20319;-68
2021/08/23 08:01:11;;;;;;;4.28;2.33;;;20.20;69.50;;;18.34;76.92;96415.88;4950930;28;20058;-68
2021/08/23 08:03:37;;;;;;;3.47;2.10;;;19.90;69.50;;;18.29;77.56;96411.22;4934490;29;20031;-69
2021/08/23 08:06:03;;;;;;;3.83;2.40;;;20.00;69.90;;;18.28;75.68;96414.09;4934302;28;20031;-68
2021/08/23 08:08:29;;;;;;;4.35;2.38;;;20.00;69.50;;;18.27;75.79;96415.16;4934992;29;20028;-68
2021/08/23 08:10:56;;;;;;;3.45;2.10;;;20.00;70.30;;;18.29;77.51;96413.88;4949888;28;20095;-68
2021/08/23 08:13:22;;;;;;;4.68;2.55;;;20.00;71.50;;;18.30;75.89;96412.03;4934724;28;20046;-68
2021/08/23 08:15:48;;;;;;;3.22;1.90;;;20.00;70.70;;;18.33;76.41;96415.06;4950214;28;20499;-68
2021/08/23 08:18:14;;;;;;;3.88;2.30;;;20.10;70.70;;;18.39;76.16;96415.97;4951453;28;20271;-68
2021/08/23 08:20:40;;;;;;;4.30;2.05;;;20.20;70.20;;;18.50;75.94;96403.69;4966247;28;20035;-68
2021/08/23 08:23:06;;;;;;;4.47;1.98;;;20.60;69.90;;;18.64;75.86;96410.47;4966455;28;20035;-68
2021/08/23 08:25:31;;;;;;;4.45;1.98;;;20.80;68.80;;;18.76;76.62;96405.94;4930925;29;20590;-68
2021/08/23 08:27:57;;;;;;;3.75;1.95;;;20.70;68.60;;;18.81;75.82;96406.06;4944256;28;20044;-69
2021/08/23 08:30:23;;;;;;;4.68;3.35;;;20.60;69.00;;;18.79;75.58;96405.50;4936673;28;20043;-68
2021/08/23 08:32:48;;;;;;;4.13;2.25;;;20.50;69.30;;;18.76;76.20;96419.25;4949797;28;20062;-68
2021/08/23 08:35:14;;;;;;;3.53;2.05;;;20.40;70.50;;;18.75;75.83;96401.63;4966249;28;20408;-68
2021/08/23 08:37:40;;;;;;;4.63;1.83;;;20.50;71.20;;;18.72;76.32;96415.44;4949915;28;20059;-67
2021/08/23 08:40:07;;;;;;;3.65;2.15;;;20.40;70.30;;;18.71;75.50;96410.34;4965007;28;20035;-67
2021/08/23 08:42:33;;;;;;;3.92;1.90;;;20.30;70.30;;;18.72;76.78;96404.78;4934046;28;20130;-67
2021/08/23 08:44:58;;;;;;;4.38;2.70;;;20.40;70.50;;;18.72;75.48;96407.44;4949776;28;20568;-68
2021/08/23 08:47:24;;;;;;;2.78;1.83;;;20.40;71.00;;;18.78;76.83;96403.03;4949945;28;20498;-68
2021/08/23 08:49:50;;;;;;;3.75;1.95;;;20.70;70.70;;;18.93;76.23;96408.69;4949978;28;20066;-69
2021/08/23 08:52:16;;;;;;;3.60;2.05;;;21.10;70.30;;;19.07;77.01;96409.28;4933842;28;20074;-68
2021/08/23 08:54:44;;;;;;;5.70;2.15;;;21.20;68.90;;;19.11;76.10;96399.75;4945807;28;20036;-68
2021/08/23 08:57:10;;;;;;;3.03;1.80;;;21.10;68.10;;;19.16;74.91;96399.84;4946276;28;20081;-68
2021/08/23 08:59:39;;;;;;;3.75;2.20;;;21.20;68.10;;;19.26;75.32;96395.56;4946399;28;20039;-68
2021/08/23 09:02:05;;;;;;;4.25;2.17;;;21.40;67.10;;;19.36;73.89;96400.25;4945677;28;20481;-68
2021/08/23 09:04:36;;;;;;;5.65;2.20;;;21.40;67.10;;;19.44;73.42;96407.88;4944162;28;20106;-68
2021/08/23 09:07:04;;;;;;;2.60;1.80;;;21.50;66.80;;;19.58;73.38;96403.94;4935299;29;20593;-68
2021/08/23 09:09:30;;;;;;;2.90;1.70;;;21.90;65.40;;;19.81;73.64;96402.22;4946611;29;20232;-67
2021/08/23 09:12:00;;;;;;;3.13;1.60;;;22.10;64.90;;;19.88;71.50;96400.19;4948009;28;20051;-67
2021/08/23 09:14:26;;;;;;;;;;;21.80;64.90;;;19.90;70.74;96400.75;4949172;28;20063;-67
2021/08/23 09:16:52;;;;;;;3.42;1.50;;;21.90;64.10;;;19.99;71.97;96402.00;4933242;28;19953;-66
2021/08/23 09:19:28;;;;;;;2.47;1.48;;;22.20;63.80;;;20.16;70.71;96399.34;4964561;28;20074;-67
2021/08/23 09:22:02;;;;;;;6.50;1.95;;;22.40;62.90;;;20.13;69.59;96395.28;4964575;23;20069;-69
2021/08/23 09:24:36;;;;;;;3.03;1.80;;;21.90;63.60;;;20.06;68.75;96399.97;4923613;29;20104;-69
2021/08/23 09:27:04;;;;;;;3.13;1.70;;;21.60;63.80;;;20.15;70.89;96398.56;4942495;28;20031;-69
2021/08/23 09:29:29;;;;;;;3.38;1.60;;;22.50;63.10;;;20.53;70.29;96386.34;4918422;29;20364;-69
2021/08/23 09:31:59;;;;;;;2.70;1.63;;;23.10;60.70;;;20.69;68.47;96390.84;4933494;28;20083;-69
2021/08/23 09:34:25;;;;;;;3.33;1.98;;;23.00;60.40;;;20.76;69.11;96399.50;4948292;29;20051;-68
2021/08/23 09:36:58;;;;;;;2.65;1.40;;;22.90;59.60;;;20.82;66.57;96399.56;4930888;29;20098;-70
2021/08/23 09:39:28;;;;;;;2.90;1.50;;;22.90;59.90;;;20.95;66.86;96385.84;4913932;29;20039;-71
2021/08/23 09:42:05;;;;;;;2.80;1.55;;;23.10;60.00;;;21.02;65.61;96389.16;4930745;28;20402;-70
2021/08/23 09:44:38;;;;;;;3.30;1.90;;;23.10;58.90;;;21.06;65.52;96383.09;4929127;29;20043;-70
2021/08/23 09:47:03;;;;;;;2.10;1.15;;;23.20;58.50;;;21.25;67.14;96385.47;4933184;29;20462;-74
2021/08/23 09:49:44;;;;;;;3.50;1.60;;;23.70;57.60;;;21.51;64.35;96378.56;4941750;29;20048;-69
2021/08/23 09:52:21;;;;;;;4.82;1.60;;;24.40;54.60;;;21.91;63.38;96383.50;4942744;28;20529;-70
2021/08/23 09:55:04;;;;;;;3.33;1.50;;;24.90;53.30;;;22.26;62.17;96380.38;4938327;29;20035;-73
2021/08/23 09:57:45;;;;;;;2.70;1.27;;;25.30;52.40;;;22.31;62.34;96383.09;4949319;28;20035;-72
2021/08/23 10:00:12;;;;;;;3.38;1.60;;;24.60;53.70;;;22.36;63.59;96385.78;4936703;28;20031;-70
2021/08/23 10:02:48;;;;;;;4.70;2.67;;;24.60;53.70;;;22.27;60.91;96384.66;4948352;28;20095;-71
2021/08/23 10:05:18;;;;;;;2.25;1.30;;;24.20;54.70;;;22.17;61.41;96395.28;4930982;29;20039;-72
2021/08/23 10:07:44;;;;;;;3.17;1.30;;;24.00;55.40;;;22.11;63.61;96393.63;4947745;28;20028;-72
2021/08/23 10:10:10;;;;;;;1.67;1.10;;;24.10;56.70;;;22.05;63.47;96383.94;4944336;28;20599;-68
2021/08/23 10:12:36;;;;;;;1.60;1.00;;;23.80;56.80;;;22.05;63.41;96379.38;4947541;28;20055;-69
2021/08/23 10:15:02;;;;;;;3.83;1.60;;;24.20;55.60;;;22.08;63.63;96383.44;4965476;28;20063;-69
2021/08/23 10:17:38;;;;;;;1.92;1.05;;;24.30;55.60;;;21.96;63.28;96376.34;4962218;28;20139;-68
2021/08/23 10:20:09;;;;;;;2.42;1.40;;;23.60;57.90;;;21.91;62.88;96376.28;4935960;28;20039;-69